sensor_id;sensor_type;location;lat;lon;timestamp;P1;durP1;ratioP1;P2;durP2;ratioP2
46348;SDS011;32057;47.830;19.046;2023-03-16T00:02:08;1.20;;;1.08;;
46348;SDS011;32057;47.830;19.046;2023-03-16T00:04:35;1.48;;;0.75;;
46348;SDS011;32057;47.830;19.046;2023-03-16T00:07:02;1.10;;;1.08;;
46348;SDS011;32057;47.830;19.046;2023-03-16T00:09:28;0.68;;;0.68;;
46348;SDS011;32057;47.830;19.046;2023-03-16T00:11:58;6.85;;;1.27;;
46348;SDS011;32057;47.830;19.046;2023-03-16T00:14:24;2.55;;;0.73;;
46348;SDS011;32057;47.830;19.046;2023-03-16T00:16:50;1.02;;;0.95;;
46348;SDS011;32057;47.830;19.046;2023-03-16T00:19:16;1.08;;;1.00;;
46348;SDS011;32057;47.830;19.046;2023-03-16T00:21:41;0.82;;;0.82;;
46348;SDS011;32057;47.830;19.046;2023-03-16T00:24:07;1.65;;;1.38;;
46348;SDS011;32057;47.830;19.046;2023-03-16T00:26:32;1.15;;;1.15;;
46348;SDS011;32057;47.830;19.046;2023-03-16T00:28:57;5.45;;;1.17;;
46348;SDS011;32057;47.830;19.046;2023-03-16T00:31:23;1.63;;;1.05;;
46348;SDS011;32057;47.830;19.046;2023-03-16T00:33:49;1.58;;;1.20;;
46348;SDS011;32057;47.830;19.046;2023-03-16T00:36:15;1.70;;;1.00;;
46348;SDS011;32057;47.830;19.046;2023-03-16T00:38:41;0.65;;;0.65;;
46348;SDS011;32057;47.830;19.046;2023-03-16T00:41:11;1.27;;;0.90;;
46348;SDS011;32057;47.830;19.046;2023-03-16T00:43:38;0.90;;;0.90;;
46348;SDS011;32057;47.830;19.046;2023-03-16T00:46:06;1.00;;;0.68;;
46348;SDS011;32057;47.830;19.046;2023-03-16T00:48:33;1.13;;;1.13;;
46348;SDS011;32057;47.830;19.046;2023-03-16T00:51:00;1.77;;;1.40;;
46348;SDS011;32057;47.830;19.046;2023-03-16T00:53:28;1.65;;;1.17;;
46348;SDS011;32057;47.830;19.046;2023-03-16T00:55:54;0.93;;;0.57;;
46348;SDS011;32057;47.830;19.046;2023-03-16T00:58:19;2.50;;;1.88;;
46348;SDS011;32057;47.830;19.046;2023-03-16T01:00:44;1.60;;;1.13;;
46348;SDS011;32057;47.830;19.046;2023-03-16T01:03:11;4.05;;;1.48;;
46348;SDS011;32057;47.830;19.046;2023-03-16T01:05:39;2.25;;;1.60;;
46348;SDS011;32057;47.830;19.046;2023-03-16T01:08:06;1.30;;;1.25;;
46348;SDS011;32057;47.830;19.046;2023-03-16T01:10:33;2.28;;;2.08;;
46348;SDS011;32057;47.830;19.046;2023-03-16T01:12:59;4.03;;;3.50;;
46348;SDS011;32057;47.830;19.046;2023-03-16T01:15:25;2.22;;;1.33;;
46348;SDS011;32057;47.830;19.046;2023-03-16T01:17:50;6.22;;;1.60;;
46348;SDS011;32057;47.830;19.046;2023-03-16T01:20:15;2.80;;;0.85;;
46348;SDS011;32057;47.830;19.046;2023-03-16T01:22:43;1.17;;;0.90;;
46348;SDS011;32057;47.830;19.046;2023-03-16T01:25:10;1.42;;;1.33;;
46348;SDS011;32057;47.830;19.046;2023-03-16T01:27:36;1.65;;;1.15;;
46348;SDS011;32057;47.830;19.046;2023-03-16T01:30:02;1.52;;;1.42;;
46348;SDS011;32057;47.830;19.046;2023-03-16T01:32:29;1.00;;;1.00;;
46348;SDS011;32057;47.830;19.046;2023-03-16T01:34:55;3.05;;;1.98;;
46348;SDS011;32057;47.830;19.046;2023-03-16T01:37:20;5.10;;;1.15;;
46348;SDS011;32057;47.830;19.046;2023-03-16T01:39:47;1.27;;;0.85;;
46348;SDS011;32057;47.830;19.046;2023-03-16T01:42:13;1.13;;;0.93;;
46348;SDS011;32057;47.830;19.046;2023-03-16T01:47:52;2.47;;;1.73;;
46348;SDS011;32057;47.830;19.046;2023-03-16T01:50:17;1.50;;;1.40;;
46348;SDS011;32057;47.830;19.046;2023-03-16T01:52:43;0.95;;;0.95;;
46348;SDS011;32057;47.830;19.046;2023-03-16T01:55:09;1.20;;;0.93;;
46348;SDS011;32057;47.830;19.046;2023-03-16T01:57:40;1.73;;;1.63;;
46348;SDS011;32057;47.830;19.046;2023-03-16T02:00:10;2.33;;;1.55;;
46348;SDS011;32057;47.830;19.046;2023-03-16T02:02:45;2.08;;;1.55;;
46348;SDS011;32057;47.830;19.046;2023-03-16T02:05:20;6.07;;;1.08;;
46348;SDS011;32057;47.830;19.046;2023-03-16T02:07:50;2.85;;;1.33;;
46348;SDS011;32057;47.830;19.046;2023-03-16T02:10:22;1.60;;;1.25;;
46348;SDS011;32057;47.830;19.046;2023-03-16T02:12:50;2.50;;;1.60;;
46348;SDS011;32057;47.830;19.046;2023-03-16T02:15:16;5.53;;;0.93;;
46348;SDS011;32057;47.830;19.046;2023-03-16T02:17:43;10.98;;;1.95;;
46348;SDS011;32057;47.830;19.046;2023-03-16T02:22:46;2.78;;;1.77;;
46348;SDS011;32057;47.830;19.046;2023-03-16T02:25:15;2.58;;;1.70;;
46348;SDS011;32057;47.830;19.046;2023-03-16T02:30:24;0.98;;;0.98;;
46348;SDS011;32057;47.830;19.046;2023-03-16T02:32:50;3.85;;;1.95;;
46348;SDS011;32057;47.830;19.046;2023-03-16T02:35:18;1.70;;;1.55;;
46348;SDS011;32057;47.830;19.046;2023-03-16T02:37:44;1.50;;;1.10;;
46348;SDS011;32057;47.830;19.046;2023-03-16T02:42:51;1.40;;;1.30;;
46348;SDS011;32057;47.830;19.046;2023-03-16T02:45:33;1.08;;;0.85;;
46348;SDS011;32057;47.830;19.046;2023-03-16T02:48:22;0.80;;;0.80;;
46348;SDS011;32057;47.830;19.046;2023-03-16T02:50:50;1.90;;;1.05;;
46348;SDS011;32057;47.830;19.046;2023-03-16T02:53:17;2.90;;;2.70;;
46348;SDS011;32057;47.830;19.046;2023-03-16T02:55:43;1.20;;;1.10;;
46348;SDS011;32057;47.830;19.046;2023-03-16T02:58:10;0.68;;;0.68;;
46348;SDS011;32057;47.830;19.046;2023-03-16T03:00:36;3.20;;;1.65;;
46348;SDS011;32057;47.830;19.046;2023-03-16T03:03:02;5.57;;;2.10;;
46348;SDS011;32057;47.830;19.046;2023-03-16T03:05:29;3.17;;;1.20;;
46348;SDS011;32057;47.830;19.046;2023-03-16T03:07:54;1.08;;;1.08;;
46348;SDS011;32057;47.830;19.046;2023-03-16T03:10:20;2.22;;;1.23;;
46348;SDS011;32057;47.830;19.046;2023-03-16T03:12:46;3.28;;;2.47;;
46348;SDS011;32057;47.830;19.046;2023-03-16T03:15:13;5.00;;;1.55;;
46348;SDS011;32057;47.830;19.046;2023-03-16T03:17:40;2.13;;;0.82;;
46348;SDS011;32057;47.830;19.046;2023-03-16T03:20:07;1.23;;;0.98;;
46348;SDS011;32057;47.830;19.046;2023-03-16T03:22:44;0.95;;;0.95;;
46348;SDS011;32057;47.830;19.046;2023-03-16T03:25:13;3.30;;;1.63;;
46348;SDS011;32057;47.830;19.046;2023-03-16T03:27:41;1.58;;;1.48;;
46348;SDS011;32057;47.830;19.046;2023-03-16T03:30:08;1.10;;;1.05;;
46348;SDS011;32057;47.830;19.046;2023-03-16T03:32:35;2.15;;;1.27;;
46348;SDS011;32057;47.830;19.046;2023-03-16T03:35:00;2.88;;;1.42;;
46348;SDS011;32057;47.830;19.046;2023-03-16T03:37:26;1.17;;;1.08;;
46348;SDS011;32057;47.830;19.046;2023-03-16T03:39:51;2.63;;;1.23;;
46348;SDS011;32057;47.830;19.046;2023-03-16T03:42:17;2.70;;;1.25;;
46348;SDS011;32057;47.830;19.046;2023-03-16T03:44:43;2.60;;;1.65;;
46348;SDS011;32057;47.830;19.046;2023-03-16T03:47:08;1.95;;;1.67;;
46348;SDS011;32057;47.830;19.046;2023-03-16T03:49:34;0.82;;;0.80;;
46348;SDS011;32057;47.830;19.046;2023-03-16T03:52:00;4.03;;;1.35;;
46348;SDS011;32057;47.830;19.046;2023-03-16T03:54:29;4.30;;;1.33;;
46348;SDS011;32057;47.830;19.046;2023-03-16T03:56:54;2.28;;;1.27;;
46348;SDS011;32057;47.830;19.046;2023-03-16T03:59:20;1.17;;;1.08;;
46348;SDS011;32057;47.830;19.046;2023-03-16T04:01:47;3.22;;;1.08;;
46348;SDS011;32057;47.830;19.046;2023-03-16T04:04:13;8.43;;;1.55;;
46348;SDS011;32057;47.830;19.046;2023-03-16T04:06:38;1.25;;;1.15;;
46348;SDS011;32057;47.830;19.046;2023-03-16T04:09:05;1.17;;;1.05;;
46348;SDS011;32057;47.830;19.046;2023-03-16T04:11:31;1.23;;;1.23;;
46348;SDS011;32057;47.830;19.046;2023-03-16T04:13:57;1.05;;;0.93;;
46348;SDS011;32057;47.830;19.046;2023-03-16T04:16:22;1.08;;;0.90;;
46348;SDS011;32057;47.830;19.046;2023-03-16T04:18:51;1.52;;;0.73;;
46348;SDS011;32057;47.830;19.046;2023-03-16T04:21:18;2.67;;;0.85;;
46348;SDS011;32057;47.830;19.046;2023-03-16T04:23:45;2.95;;;1.20;;
46348;SDS011;32057;47.830;19.046;2023-03-16T04:26:10;1.30;;;1.25;;
46348;SDS011;32057;47.830;19.046;2023-03-16T04:28:36;0.85;;;0.82;;
46348;SDS011;32057;47.830;19.046;2023-03-16T04:31:03;0.47;;;0.47;;
46348;SDS011;32057;47.830;19.046;2023-03-16T04:33:31;1.58;;;1.27;;
46348;SDS011;32057;47.830;19.046;2023-03-16T04:35:58;0.65;;;0.65;;
46348;SDS011;32057;47.830;19.046;2023-03-16T04:38:24;0.65;;;0.65;;
46348;SDS011;32057;47.830;19.046;2023-03-16T04:40:50;0.40;;;0.40;;
46348;SDS011;32057;47.830;19.046;2023-03-16T04:43:15;5.00;;;1.38;;
46348;SDS011;32057;47.830;19.046;2023-03-16T04:45:41;1.10;;;1.00;;
46348;SDS011;32057;47.830;19.046;2023-03-16T04:48:07;2.22;;;0.90;;
46348;SDS011;32057;47.830;19.046;2023-03-16T04:50:34;0.77;;;0.77;;
46348;SDS011;32057;47.830;19.046;2023-03-16T04:52:59;1.27;;;1.23;;
46348;SDS011;32057;47.830;19.046;2023-03-16T04:55:25;2.25;;;1.38;;
46348;SDS011;32057;47.830;19.046;2023-03-16T04:57:50;1.15;;;0.85;;
46348;SDS011;32057;47.830;19.046;2023-03-16T05:00:16;0.63;;;0.63;;
46348;SDS011;32057;47.830;19.046;2023-03-16T05:02:46;0.45;;;0.45;;
46348;SDS011;32057;47.830;19.046;2023-03-16T05:05:12;0.80;;;0.77;;
46348;SDS011;32057;47.830;19.046;2023-03-16T05:07:39;1.33;;;1.23;;
46348;SDS011;32057;47.830;19.046;2023-03-16T05:10:06;1.30;;;1.15;;
46348;SDS011;32057;47.830;19.046;2023-03-16T05:12:32;3.22;;;1.08;;
46348;SDS011;32057;47.830;19.046;2023-03-16T05:14:58;1.15;;;1.15;;
46348;SDS011;32057;47.830;19.046;2023-03-16T05:17:23;1.15;;;1.15;;
46348;SDS011;32057;47.830;19.046;2023-03-16T05:19:49;0.73;;;0.73;;
46348;SDS011;32057;47.830;19.046;2023-03-16T05:22:14;0.68;;;0.68;;
46348;SDS011;32057;47.830;19.046;2023-03-16T05:24:40;2.25;;;1.02;;
46348;SDS011;32057;47.830;19.046;2023-03-16T05:27:05;0.60;;;0.55;;
46348;SDS011;32057;47.830;19.046;2023-03-16T05:29:31;2.38;;;1.17;;
46348;SDS011;32057;47.830;19.046;2023-03-16T05:31:57;0.77;;;0.77;;
46348;SDS011;32057;47.830;19.046;2023-03-16T05:34:23;0.88;;;0.88;;
46348;SDS011;32057;47.830;19.046;2023-03-16T05:36:49;1.00;;;1.00;;
46348;SDS011;32057;47.830;19.046;2023-03-16T05:39:14;4.85;;;1.25;;
46348;SDS011;32057;47.830;19.046;2023-03-16T05:41:40;4.35;;;1.27;;
46348;SDS011;32057;47.830;19.046;2023-03-16T05:44:06;0.95;;;0.95;;
46348;SDS011;32057;47.830;19.046;2023-03-16T05:46:32;1.17;;;1.15;;
46348;SDS011;32057;47.830;19.046;2023-03-16T05:48:58;1.85;;;1.75;;
46348;SDS011;32057;47.830;19.046;2023-03-16T05:51:23;2.33;;;1.67;;
46348;SDS011;32057;47.830;19.046;2023-03-16T05:53:52;2.85;;;1.73;;
46348;SDS011;32057;47.830;19.046;2023-03-16T05:56:25;1.92;;;1.70;;
46348;SDS011;32057;47.830;19.046;2023-03-16T05:58:51;1.60;;;1.02;;
46348;SDS011;32057;47.830;19.046;2023-03-16T06:01:18;3.75;;;2.45;;
46348;SDS011;32057;47.830;19.046;2023-03-16T06:03:45;2.42;;;2.22;;
46348;SDS011;32057;47.830;19.046;2023-03-16T06:06:11;2.90;;;2.08;;
46348;SDS011;32057;47.830;19.046;2023-03-16T06:08:37;2.40;;;2.08;;
46348;SDS011;32057;47.830;19.046;2023-03-16T06:11:02;6.90;;;2.00;;
46348;SDS011;32057;47.830;19.046;2023-03-16T06:13:28;1.73;;;1.40;;
46348;SDS011;32057;47.830;19.046;2023-03-16T06:15:54;2.17;;;2.03;;
46348;SDS011;32057;47.830;19.046;2023-03-16T06:18:20;1.50;;;1.40;;
46348;SDS011;32057;47.830;19.046;2023-03-16T06:20:45;9.20;;;2.80;;
46348;SDS011;32057;47.830;19.046;2023-03-16T06:23:11;3.08;;;2.47;;
46348;SDS011;32057;47.830;19.046;2023-03-16T06:25:37;1.50;;;1.40;;
46348;SDS011;32057;47.830;19.046;2023-03-16T06:28:03;3.17;;;2.65;;
46348;SDS011;32057;47.830;19.046;2023-03-16T06:30:29;3.75;;;1.55;;
46348;SDS011;32057;47.830;19.046;2023-03-16T06:32:54;4.97;;;2.25;;
46348;SDS011;32057;47.830;19.046;2023-03-16T06:35:19;6.32;;;2.25;;
46348;SDS011;32057;47.830;19.046;2023-03-16T06:37:45;4.07;;;2.28;;
46348;SDS011;32057;47.830;19.046;2023-03-16T06:40:10;10.48;;;2.60;;
46348;SDS011;32057;47.830;19.046;2023-03-16T06:42:37;2.72;;;2.05;;
46348;SDS011;32057;47.830;19.046;2023-03-16T06:45:03;5.07;;;2.97;;
46348;SDS011;32057;47.830;19.046;2023-03-16T06:47:28;3.08;;;1.80;;
46348;SDS011;32057;47.830;19.046;2023-03-16T06:49:54;2.28;;;1.63;;
46348;SDS011;32057;47.830;19.046;2023-03-16T06:52:19;2.95;;;2.40;;
46348;SDS011;32057;47.830;19.046;2023-03-16T06:54:45;13.80;;;1.85;;
46348;SDS011;32057;47.830;19.046;2023-03-16T06:57:11;6.65;;;2.42;;
46348;SDS011;32057;47.830;19.046;2023-03-16T06:59:36;2.25;;;1.63;;
46348;SDS011;32057;47.830;19.046;2023-03-16T07:02:02;3.33;;;2.28;;
46348;SDS011;32057;47.830;19.046;2023-03-16T07:04:27;3.03;;;2.20;;
46348;SDS011;32057;47.830;19.046;2023-03-16T07:06:52;1.52;;;1.27;;
46348;SDS011;32057;47.830;19.046;2023-03-16T07:09:18;1.52;;;1.42;;
46348;SDS011;32057;47.830;19.046;2023-03-16T07:11:43;3.67;;;1.90;;
46348;SDS011;32057;47.830;19.046;2023-03-16T07:14:09;1.95;;;1.80;;
46348;SDS011;32057;47.830;19.046;2023-03-16T07:16:35;2.75;;;1.98;;
46348;SDS011;32057;47.830;19.046;2023-03-16T07:19:01;6.53;;;1.95;;
46348;SDS011;32057;47.830;19.046;2023-03-16T07:21:26;13.18;;;2.55;;
46348;SDS011;32057;47.830;19.046;2023-03-16T07:23:52;4.07;;;2.00;;
46348;SDS011;32057;47.830;19.046;2023-03-16T07:26:19;3.90;;;3.05;;
46348;SDS011;32057;47.830;19.046;2023-03-16T07:28:45;10.25;;;2.25;;
46348;SDS011;32057;47.830;19.046;2023-03-16T07:31:10;6.25;;;1.65;;
46348;SDS011;32057;47.830;19.046;2023-03-16T07:33:36;2.13;;;1.80;;
46348;SDS011;32057;47.830;19.046;2023-03-16T07:36:02;3.33;;;1.80;;
46348;SDS011;32057;47.830;19.046;2023-03-16T07:38:31;2.67;;;1.73;;
46348;SDS011;32057;47.830;19.046;2023-03-16T07:40:58;3.13;;;2.00;;
46348;SDS011;32057;47.830;19.046;2023-03-16T07:43:24;4.03;;;1.73;;
46348;SDS011;32057;47.830;19.046;2023-03-16T07:45:50;9.77;;;2.42;;
46348;SDS011;32057;47.830;19.046;2023-03-16T07:48:17;1.63;;;1.52;;
46348;SDS011;32057;47.830;19.046;2023-03-16T07:50:43;0.60;;;0.60;;
46348;SDS011;32057;47.830;19.046;2023-03-16T07:53:12;2.15;;;1.45;;
46348;SDS011;32057;47.830;19.046;2023-03-16T07:55:39;2.00;;;1.83;;
46348;SDS011;32057;47.830;19.046;2023-03-16T07:58:05;1.95;;;1.83;;
46348;SDS011;32057;47.830;19.046;2023-03-16T08:00:31;2.25;;;1.83;;
46348;SDS011;32057;47.830;19.046;2023-03-16T08:02:58;1.88;;;1.77;;
46348;SDS011;32057;47.830;19.046;2023-03-16T08:05:24;3.95;;;1.88;;
46348;SDS011;32057;47.830;19.046;2023-03-16T08:07:49;1.00;;;1.00;;
46348;SDS011;32057;47.830;19.046;2023-03-16T08:10:16;2.75;;;1.50;;
46348;SDS011;32057;47.830;19.046;2023-03-16T08:12:42;2.20;;;1.77;;
46348;SDS011;32057;47.830;19.046;2023-03-16T08:15:07;0.70;;;0.70;;
46348;SDS011;32057;47.830;19.046;2023-03-16T08:17:34;0.80;;;0.70;;
46348;SDS011;32057;47.830;19.046;2023-03-16T08:20:00;0.85;;;0.85;;
46348;SDS011;32057;47.830;19.046;2023-03-16T08:22:30;4.20;;;1.15;;
46348;SDS011;32057;47.830;19.046;2023-03-16T08:24:56;4.28;;;0.90;;
46348;SDS011;32057;47.830;19.046;2023-03-16T08:27:22;1.50;;;0.60;;
46348;SDS011;32057;47.830;19.046;2023-03-16T08:29:50;0.60;;;0.60;;
46348;SDS011;32057;47.830;19.046;2023-03-16T08:32:16;1.75;;;0.85;;
46348;SDS011;32057;47.830;19.046;2023-03-16T08:34:42;3.90;;;0.80;;
46348;SDS011;32057;47.830;19.046;2023-03-16T08:37:07;0.98;;;0.80;;
46348;SDS011;32057;47.830;19.046;2023-03-16T08:39:33;0.50;;;0.50;;
46348;SDS011;32057;47.830;19.046;2023-03-16T08:41:59;1.73;;;0.85;;
46348;SDS011;32057;47.830;19.046;2023-03-16T08:44:25;1.02;;;0.65;;
46348;SDS011;32057;47.830;19.046;2023-03-16T08:46:51;1.05;;;0.93;;
46348;SDS011;32057;47.830;19.046;2023-03-16T08:49:17;0.65;;;0.65;;
46348;SDS011;32057;47.830;19.046;2023-03-16T08:51:44;1.65;;;0.95;;
46348;SDS011;32057;47.830;19.046;2023-03-16T08:54:10;0.85;;;0.60;;
46348;SDS011;32057;47.830;19.046;2023-03-16T08:56:36;1.20;;;1.10;;
46348;SDS011;32057;47.830;19.046;2023-03-16T08:59:02;0.70;;;0.70;;
46348;SDS011;32057;47.830;19.046;2023-03-16T09:01:27;1.85;;;0.70;;
46348;SDS011;32057;47.830;19.046;2023-03-16T09:03:53;1.75;;;1.02;;
46348;SDS011;32057;47.830;19.046;2023-03-16T09:06:18;0.40;;;0.40;;
46348;SDS011;32057;47.830;19.046;2023-03-16T09:08:44;0.90;;;0.90;;
46348;SDS011;32057;47.830;19.046;2023-03-16T09:11:10;0.65;;;0.65;;
46348;SDS011;32057;47.830;19.046;2023-03-16T09:13:38;0.88;;;0.85;;
46348;SDS011;32057;47.830;19.046;2023-03-16T09:16:05;6.65;;;1.10;;
46348;SDS011;32057;47.830;19.046;2023-03-16T09:18:32;2.55;;;1.27;;
46348;SDS011;32057;47.830;19.046;2023-03-16T09:20:59;0.65;;;0.65;;
46348;SDS011;32057;47.830;19.046;2023-03-16T09:23:26;0.55;;;0.40;;
46348;SDS011;32057;47.830;19.046;2023-03-16T09:25:55;0.90;;;0.88;;
46348;SDS011;32057;47.830;19.046;2023-03-16T09:28:23;0.65;;;0.65;;
46348;SDS011;32057;47.830;19.046;2023-03-16T09:30:51;3.20;;;0.95;;
46348;SDS011;32057;47.830;19.046;2023-03-16T09:33:17;2.05;;;1.33;;
46348;SDS011;32057;47.830;19.046;2023-03-16T09:35:43;0.77;;;0.77;;
46348;SDS011;32057;47.830;19.046;2023-03-16T09:38:09;5.15;;;1.33;;
46348;SDS011;32057;47.830;19.046;2023-03-16T09:40:35;1.30;;;0.68;;
46348;SDS011;32057;47.830;19.046;2023-03-16T09:48:53;1.02;;;0.65;;
46348;SDS011;32057;47.830;19.046;2023-03-16T09:53:53;1.95;;;0.65;;
46348;SDS011;32057;47.830;19.046;2023-03-16T09:56:41;1.27;;;1.10;;
46348;SDS011;32057;47.830;19.046;2023-03-16T09:59:13;0.82;;;0.77;;
46348;SDS011;32057;47.830;19.046;2023-03-16T10:12:38;0.75;;;0.68;;
46348;SDS011;32057;47.830;19.046;2023-03-16T10:15:16;0.30;;;0.30;;
46348;SDS011;32057;47.830;19.046;2023-03-16T10:17:55;0.30;;;0.30;;
46348;SDS011;32057;47.830;19.046;2023-03-16T10:20:21;0.70;;;0.70;;
46348;SDS011;32057;47.830;19.046;2023-03-16T10:22:49;1.30;;;1.20;;
46348;SDS011;32057;47.830;19.046;2023-03-16T10:28:14;1.35;;;1.25;;
46348;SDS011;32057;47.830;19.046;2023-03-16T10:30:45;0.32;;;0.32;;
46348;SDS011;32057;47.830;19.046;2023-03-16T10:35:52;0.30;;;0.30;;
46348;SDS011;32057;47.830;19.046;2023-03-16T10:43:54;2.20;;;0.40;;
46348;SDS011;32057;47.830;19.046;2023-03-16T10:46:35;0.50;;;0.50;;
46348;SDS011;32057;47.830;19.046;2023-03-16T10:49:03;0.80;;;0.40;;
46348;SDS011;32057;47.830;19.046;2023-03-16T10:51:30;0.75;;;0.57;;
46348;SDS011;32057;47.830;19.046;2023-03-16T10:54:08;0.22;;;0.22;;
46348;SDS011;32057;47.830;19.046;2023-03-16T10:56:38;0.50;;;0.50;;
46348;SDS011;32057;47.830;19.046;2023-03-16T11:01:43;0.40;;;0.40;;
46348;SDS011;32057;47.830;19.046;2023-03-16T11:04:13;0.80;;;0.40;;
46348;SDS011;32057;47.830;19.046;2023-03-16T11:06:46;0.40;;;0.40;;
46348;SDS011;32057;47.830;19.046;2023-03-16T11:09:25;0.28;;;0.28;;
46348;SDS011;32057;47.830;19.046;2023-03-16T11:11:59;3.15;;;0.60;;
46348;SDS011;32057;47.830;19.046;2023-03-16T11:14:36;0.35;;;0.35;;
46348;SDS011;32057;47.830;19.046;2023-03-16T11:17:06;0.82;;;0.43;;
46348;SDS011;32057;47.830;19.046;2023-03-16T11:19:39;0.43;;;0.43;;
46348;SDS011;32057;47.830;19.046;2023-03-16T11:22:15;0.50;;;0.50;;
46348;SDS011;32057;47.830;19.046;2023-03-16T11:24:59;0.30;;;0.30;;
46348;SDS011;32057;47.830;19.046;2023-03-16T11:32:46;3.10;;;1.48;;
46348;SDS011;32057;47.830;19.046;2023-03-16T11:41:00;0.50;;;0.50;;
46348;SDS011;32057;47.830;19.046;2023-03-16T11:46:21;1.17;;;0.40;;
46348;SDS011;32057;47.830;19.046;2023-03-16T11:51:47;0.45;;;0.45;;
46348;SDS011;32057;47.830;19.046;2023-03-16T12:14:04;0.55;;;0.55;;
46348;SDS011;32057;47.830;19.046;2023-03-16T12:16:52;0.95;;;0.47;;
46348;SDS011;32057;47.830;19.046;2023-03-16T12:20:04;0.43;;;0.43;;
46348;SDS011;32057;47.830;19.046;2023-03-16T12:24:47;0.47;;;0.47;;
46348;SDS011;32057;47.830;19.046;2023-03-16T12:27:14;5.47;;;0.75;;
46348;SDS011;32057;47.830;19.046;2023-03-16T12:40:08;1.55;;;0.40;;
46348;SDS011;32057;47.830;19.046;2023-03-16T12:42:49;0.28;;;0.28;;
46348;SDS011;32057;47.830;19.046;2023-03-16T12:45:28;0.82;;;0.82;;
46348;SDS011;32057;47.830;19.046;2023-03-16T12:53:27;0.35;;;0.35;;
46348;SDS011;32057;47.830;19.046;2023-03-16T12:56:08;0.30;;;0.30;;
46348;SDS011;32057;47.830;19.046;2023-03-16T12:58:39;1.38;;;0.60;;
46348;SDS011;32057;47.830;19.046;2023-03-16T13:01:08;0.55;;;0.40;;
46348;SDS011;32057;47.830;19.046;2023-03-16T13:03:36;0.63;;;0.60;;
46348;SDS011;32057;47.830;19.046;2023-03-16T13:06:03;2.13;;;1.27;;
46348;SDS011;32057;47.830;19.046;2023-03-16T13:08:39;3.10;;;0.38;;
46348;SDS011;32057;47.830;19.046;2023-03-16T13:11:07;0.40;;;0.40;;
46348;SDS011;32057;47.830;19.046;2023-03-16T13:13:35;0.30;;;0.30;;
46348;SDS011;32057;47.830;19.046;2023-03-16T13:16:22;0.52;;;0.52;;
46348;SDS011;32057;47.830;19.046;2023-03-16T13:18:51;1.00;;;0.68;;
46348;SDS011;32057;47.830;19.046;2023-03-16T13:21:21;0.20;;;0.20;;
46348;SDS011;32057;47.830;19.046;2023-03-16T13:23:59;0.25;;;0.25;;
46348;SDS011;32057;47.830;19.046;2023-03-16T13:31:52;0.40;;;0.40;;
46348;SDS011;32057;47.830;19.046;2023-03-16T13:34:21;0.30;;;0.30;;
46348;SDS011;32057;47.830;19.046;2023-03-16T13:36:53;0.40;;;0.40;;
46348;SDS011;32057;47.830;19.046;2023-03-16T13:39:21;0.47;;;0.47;;
46348;SDS011;32057;47.830;19.046;2023-03-16T13:44:21;0.52;;;0.30;;
46348;SDS011;32057;47.830;19.046;2023-03-16T13:46:49;0.22;;;0.22;;
46348;SDS011;32057;47.830;19.046;2023-03-16T13:49:15;0.20;;;0.20;;
46348;SDS011;32057;47.830;19.046;2023-03-16T13:51:40;0.90;;;0.52;;
46348;SDS011;32057;47.830;19.046;2023-03-16T13:54:17;1.48;;;0.77;;
46348;SDS011;32057;47.830;19.046;2023-03-16T13:56:52;0.70;;;0.50;;
46348;SDS011;32057;47.830;19.046;2023-03-16T13:59:21;0.47;;;0.47;;
46348;SDS011;32057;47.830;19.046;2023-03-16T14:01:47;0.30;;;0.30;;
46348;SDS011;32057;47.830;19.046;2023-03-16T14:04:24;0.30;;;0.30;;
46348;SDS011;32057;47.830;19.046;2023-03-16T14:06:56;0.55;;;0.52;;
46348;SDS011;32057;47.830;19.046;2023-03-16T14:09:35;0.20;;;0.20;;
46348;SDS011;32057;47.830;19.046;2023-03-16T14:12:00;0.30;;;0.30;;
46348;SDS011;32057;47.830;19.046;2023-03-16T14:14:28;0.63;;;0.52;;
46348;SDS011;32057;47.830;19.046;2023-03-16T14:16:59;0.30;;;0.30;;
46348;SDS011;32057;47.830;19.046;2023-03-16T14:19:27;0.50;;;0.50;;
46348;SDS011;32057;47.830;19.046;2023-03-16T14:22:03;0.32;;;0.32;;
46348;SDS011;32057;47.830;19.046;2023-03-16T14:24:33;0.40;;;0.40;;
46348;SDS011;32057;47.830;19.046;2023-03-16T14:29:52;0.30;;;0.30;;
46348;SDS011;32057;47.830;19.046;2023-03-16T14:32:30;1.35;;;0.47;;
46348;SDS011;32057;47.830;19.046;2023-03-16T14:35:16;1.42;;;0.57;;
46348;SDS011;32057;47.830;19.046;2023-03-16T14:37:45;0.25;;;0.25;;
46348;SDS011;32057;47.830;19.046;2023-03-16T14:40:21;0.20;;;0.20;;
46348;SDS011;32057;47.830;19.046;2023-03-16T14:42:48;0.30;;;0.30;;
46348;SDS011;32057;47.830;19.046;2023-03-16T14:45:15;0.80;;;0.52;;
46348;SDS011;32057;47.830;19.046;2023-03-16T14:47:42;0.30;;;0.30;;
46348;SDS011;32057;47.830;19.046;2023-03-16T14:50:17;0.20;;;0.20;;
46348;SDS011;32057;47.830;19.046;2023-03-16T14:52:46;1.10;;;0.40;;
46348;SDS011;32057;47.830;19.046;2023-03-16T14:55:13;0.73;;;0.45;;
46348;SDS011;32057;47.830;19.046;2023-03-16T14:57:41;0.45;;;0.40;;
46348;SDS011;32057;47.830;19.046;2023-03-16T15:00:10;2.05;;;0.73;;
46348;SDS011;32057;47.830;19.046;2023-03-16T15:02:39;0.83;;;0.30;;
46348;SDS011;32057;47.830;19.046;2023-03-16T15:05:09;0.80;;;0.80;;
46348;SDS011;32057;47.830;19.046;2023-03-16T15:07:44;0.45;;;0.45;;
46348;SDS011;32057;47.830;19.046;2023-03-16T15:12:39;0.50;;;0.50;;
46348;SDS011;32057;47.830;19.046;2023-03-16T15:15:15;0.60;;;0.60;;
46348;SDS011;32057;47.830;19.046;2023-03-16T15:17:45;0.30;;;0.30;;
46348;SDS011;32057;47.830;19.046;2023-03-16T15:20:12;0.68;;;0.68;;
46348;SDS011;32057;47.830;19.046;2023-03-16T15:22:39;3.42;;;1.05;;
46348;SDS011;32057;47.830;19.046;2023-03-16T15:27:41;0.60;;;0.60;;
46348;SDS011;32057;47.830;19.046;2023-03-16T15:30:10;0.57;;;0.57;;
46348;SDS011;32057;47.830;19.046;2023-03-16T15:32:43;0.40;;;0.40;;
46348;SDS011;32057;47.830;19.046;2023-03-16T15:35:09;0.50;;;0.40;;
46348;SDS011;32057;47.830;19.046;2023-03-16T15:37:35;0.70;;;0.60;;
46348;SDS011;32057;47.830;19.046;2023-03-16T15:40:01;0.65;;;0.40;;
46348;SDS011;32057;47.830;19.046;2023-03-16T15:44:59;0.75;;;0.50;;
46348;SDS011;32057;47.830;19.046;2023-03-16T15:47:25;0.45;;;0.38;;
46348;SDS011;32057;47.830;19.046;2023-03-16T15:49:50;0.55;;;0.40;;
46348;SDS011;32057;47.830;19.046;2023-03-16T15:52:26;0.50;;;0.50;;
46348;SDS011;32057;47.830;19.046;2023-03-16T15:54:56;0.20;;;0.20;;
46348;SDS011;32057;47.830;19.046;2023-03-16T15:57:25;0.40;;;0.40;;
46348;SDS011;32057;47.830;19.046;2023-03-16T15:59:51;0.35;;;0.35;;
46348;SDS011;32057;47.830;19.046;2023-03-16T16:02:35;0.30;;;0.30;;
46348;SDS011;32057;47.830;19.046;2023-03-16T16:05:01;1.10;;;0.65;;
46348;SDS011;32057;47.830;19.046;2023-03-16T16:07:26;1.20;;;0.63;;
46348;SDS011;32057;47.830;19.046;2023-03-16T16:09:52;0.50;;;0.50;;
46348;SDS011;32057;47.830;19.046;2023-03-16T16:12:17;0.68;;;0.68;;
46348;SDS011;32057;47.830;19.046;2023-03-16T16:14:45;0.32;;;0.32;;
46348;SDS011;32057;47.830;19.046;2023-03-16T16:17:11;0.77;;;0.52;;
46348;SDS011;32057;47.830;19.046;2023-03-16T16:19:42;0.47;;;0.47;;
46348;SDS011;32057;47.830;19.046;2023-03-16T16:22:10;1.10;;;0.50;;
46348;SDS011;32057;47.830;19.046;2023-03-16T16:24:37;0.60;;;0.60;;
46348;SDS011;32057;47.830;19.046;2023-03-16T16:27:02;0.93;;;0.90;;
46348;SDS011;32057;47.830;19.046;2023-03-16T16:29:29;1.05;;;0.75;;
46348;SDS011;32057;47.830;19.046;2023-03-16T16:31:57;0.65;;;0.60;;
46348;SDS011;32057;47.830;19.046;2023-03-16T16:34:23;2.15;;;1.33;;
46348;SDS011;32057;47.830;19.046;2023-03-16T16:36:49;1.20;;;0.90;;